sensor_id;sensor_type;location;lat;lon;timestamp;pressure;altitude;pressure_sealevel;temperature;humidity
11345;BME280;5727;42.600;23.028;2024-01-15T00:00:29;93114.78;;;-2.84;100.00
11345;BME280;5727;42.600;23.028;2024-01-15T00:02:56;93112.47;;;-2.86;100.00
11345;BME280;5727;42.600;23.028;2024-01-15T00:05:23;93110.44;;;-2.89;100.00
11345;BME280;5727;42.600;23.028;2024-01-15T00:07:50;93109.41;;;-2.93;100.00
11345;BME280;5727;42.600;23.028;2024-01-15T00:10:17;93120.16;;;-2.96;100.00
11345;BME280;5727;42.600;23.028;2024-01-15T00:12:44;93115.28;;;-2.97;100.00
11345;BME280;5727;42.600;23.028;2024-01-15T00:15:12;93112.72;;;-2.97;100.00
11345;BME280;5727;42.600;23.028;2024-01-15T00:17:39;93112.47;;;-2.96;100.00
11345;BME280;5727;42.600;23.028;2024-01-15T00:20:07;93118.09;;;-2.94;100.00
11345;BME280;5727;42.600;23.028;2024-01-15T00:22:34;93111.97;;;-2.93;100.00
11345;BME280;5727;42.600;23.028;2024-01-15T00:25:02;93109.66;;;-2.94;100.00
11345;BME280;5727;42.600;23.028;2024-01-15T00:27:28;93116.31;;;-2.98;100.00
11345;BME280;5727;42.600;23.028;2024-01-15T00:29:55;93116.06;;;-3.02;100.00
11345;BME280;5727;42.600;23.028;2024-01-15T00:32:24;93116.56;;;-3.05;100.00
11345;BME280;5727;42.600;23.028;2024-01-15T00:34:51;93120.94;;;-3.10;100.00
11345;BME280;5727;42.600;23.028;2024-01-15T00:37:18;93116.84;;;-3.06;100.00
11345;BME280;5727;42.600;23.028;2024-01-15T00:39:45;93121.97;;;-3.11;100.00
11345;BME280;5727;42.600;23.028;2024-01-15T00:42:12;93124.00;;;-3.18;100.00
11345;BME280;5727;42.600;23.028;2024-01-15T00:44:39;93123.75;;;-3.22;100.00
11345;BME280;5727;42.600;23.028;2024-01-15T00:47:06;93121.44;;;-3.18;100.00
11345;BME280;5727;42.600;23.028;2024-01-15T00:49:34;93115.31;;;-3.17;100.00
11345;BME280;5727;42.600;23.028;2024-01-15T00:52:01;93103.25;;;-3.22;100.00
11345;BME280;5727;42.600;23.028;2024-01-15T00:54:28;93111.97;;;-3.23;100.00
11345;BME280;5727;42.600;23.028;2024-01-15T00:56:55;93104.00;;;-3.31;100.00
11345;BME280;5727;42.600;23.028;2024-01-15T00:59:22;93110.41;;;-3.39;100.00
11345;BME280;5727;42.600;23.028;2024-01-15T01:01:49;93105.53;;;-3.40;100.00
11345;BME280;5727;42.600;23.028;2024-01-15T01:04:16;93102.72;;;-3.39;100.00
11345;BME280;5727;42.600;23.028;2024-01-15T01:06:44;93107.31;;;-3.36;100.00
11345;BME280;5727;42.600;23.028;2024-01-15T01:09:11;93107.56;;;-3.32;100.00
11345;BME280;5727;42.600;23.028;2024-01-15T01:11:39;93104.28;;;-3.33;100.00
11345;BME280;5727;42.600;23.028;2024-01-15T01:14:06;93105.28;;;-3.34;100.00
11345;BME280;5727;42.600;23.028;2024-01-15T01:16:32;93099.91;;;-3.37;100.00
11345;BME280;5727;42.600;23.028;2024-01-15T01:19:04;93096.56;;;-3.48;100.00
11345;BME280;5727;42.600;23.028;2024-01-15T01:21:31;93090.41;;;-3.47;100.00
11345;BME280;5727;42.600;23.028;2024-01-15T01:23:59;93096.84;;;-3.44;100.00
11345;BME280;5727;42.600;23.028;2024-01-15T01:26:26;93094.78;;;-3.42;100.00
11345;BME280;5727;42.600;23.028;2024-01-15T01:28:53;93086.06;;;-3.46;100.00
11345;BME280;5727;42.600;23.028;2024-01-15T01:31:20;93084.53;;;-3.42;100.00
11345;BME280;5727;42.600;23.028;2024-01-15T01:33:47;93094.53;;;-3.41;100.00
11345;BME280;5727;42.600;23.028;2024-01-15T01:36:14;93089.63;;;-3.47;100.00
11345;BME280;5727;42.600;23.028;2024-01-15T01:38:41;93090.69;;;-3.38;100.00
11345;BME280;5727;42.600;23.028;2024-01-15T01:41:09;93086.84;;;-3.36;100.00
11345;BME280;5727;42.600;23.028;2024-01-15T01:43:36;93087.09;;;-3.32;100.00
11345;BME280;5727;42.600;23.028;2024-01-15T01:46:03;93084.03;;;-3.34;100.00
11345;BME280;5727;42.600;23.028;2024-01-15T01:48:31;93068.91;;;-3.36;100.00
11345;BME280;5727;42.600;23.028;2024-01-15T01:51:00;93075.56;;;-3.40;100.00
11345;BME280;5727;42.600;23.028;2024-01-15T01:53:29;93066.88;;;-3.39;100.00
11345;BME280;5727;42.600;23.028;2024-01-15T01:55:57;93062.00;;;-3.45;100.00
11345;BME280;5727;42.600;23.028;2024-01-15T01:58:27;93058.66;;;-3.51;100.00
11345;BME280;5727;42.600;23.028;2024-01-15T02:00:55;93053.03;;;-3.58;100.00
11345;BME280;5727;42.600;23.028;2024-01-15T02:03:22;93033.81;;;-3.71;100.00
11345;BME280;5727;42.600;23.028;2024-01-15T02:05:50;93027.41;;;-3.68;100.00
11345;BME280;5727;42.600;23.028;2024-01-15T02:08:18;93033.81;;;-3.71;100.00
11345;BME280;5727;42.600;23.028;2024-01-15T02:10:46;93023.06;;;-3.78;100.00
11345;BME280;5727;42.600;23.028;2024-01-15T02:13:13;93026.91;;;-3.70;100.00
11345;BME280;5727;42.600;23.028;2024-01-15T02:15:41;93022.03;;;-3.66;100.00
11345;BME280;5727;42.600;23.028;2024-01-15T02:18:08;93016.44;;;-3.63;100.00
11345;BME280;5727;42.600;23.028;2024-01-15T02:20:35;93015.91;;;-3.60;100.00
11345;BME280;5727;42.600;23.028;2024-01-15T02:23:10;93018.22;;;-3.64;100.00
11345;BME280;5727;42.600;23.028;2024-01-15T02:25:38;93013.88;;;-3.63;100.00
11345;BME280;5727;42.600;23.028;2024-01-15T02:28:06;93007.47;;;-3.66;100.00
11345;BME280;5727;42.600;23.028;2024-01-15T02:30:34;93015.38;;;-3.78;100.00
11345;BME280;5727;42.600;23.028;2024-01-15T02:33:03;93010.25;;;-3.93;100.00
11345;BME280;5727;42.600;23.028;2024-01-15T02:35:30;93004.88;;;-3.96;100.00
11345;BME280;5727;42.600;23.028;2024-01-15T02:37:58;92995.28;;;-4.46;100.00
11345;BME280;5727;42.600;23.028;2024-01-15T02:40:26;92999.63;;;-4.41;100.00
11345;BME280;5727;42.600;23.028;2024-01-15T02:42:53;93004.94;;;-4.58;100.00
11345;BME280;5727;42.600;23.028;2024-01-15T02:45:21;92995.72;;;-4.59;100.00
11345;BME280;5727;42.600;23.028;2024-01-15T02:47:47;92999.31;;;-4.65;100.00
11345;BME280;5727;42.600;23.028;2024-01-15T02:50:15;93002.34;;;-4.68;100.00
11345;BME280;5727;42.600;23.028;2024-01-15T02:52:42;92996.19;;;-4.77;100.00
11345;BME280;5727;42.600;23.028;2024-01-15T02:55:09;92999.00;;;-4.69;100.00
11345;BME280;5727;42.600;23.028;2024-01-15T02:57:37;93010.53;;;-4.71;100.00
11345;BME280;5727;42.600;23.028;2024-01-15T03:00:05;93000.84;;;-4.64;100.00
11345;BME280;5727;42.600;23.028;2024-01-15T03:02:32;92976.09;;;-4.53;100.00
11345;BME280;5727;42.600;23.028;2024-01-15T03:04:59;92968.22;;;-4.42;100.00
11345;BME280;5727;42.600;23.028;2024-01-15T03:07:28;92974.09;;;-4.26;100.00
11345;BME280;5727;42.600;23.028;2024-01-15T03:09:54;92974.38;;;-4.13;100.00
11345;BME280;5727;42.600;23.028;2024-01-15T03:12:21;92980.78;;;-4.05;100.00
11345;BME280;5727;42.600;23.028;2024-01-15T03:14:50;92965.91;;;-4.28;100.00
11345;BME280;5727;42.600;23.028;2024-01-15T03:17:17;92964.66;;;-4.26;100.00
11345;BME280;5727;42.600;23.028;2024-01-15T03:19:44;92965.19;;;-4.19;100.00
11345;BME280;5727;42.600;23.028;2024-01-15T03:22:11;92961.09;;;-4.25;100.00
11345;BME280;5727;42.600;23.028;2024-01-15T03:24:38;92952.41;;;-4.14;100.00
11345;BME280;5727;42.600;23.028;2024-01-15T03:27:05;92961.84;;;-4.19;100.00
11345;BME280;5727;42.600;23.028;2024-01-15T03:29:32;92960.06;;;-4.19;100.00
11345;BME280;5727;42.600;23.028;2024-01-15T03:32:00;92959.06;;;-4.08;100.00
11345;BME280;5727;42.600;23.028;2024-01-15T03:34:27;92954.97;;;-3.99;100.00
11345;BME280;5727;42.600;23.028;2024-01-15T03:36:54;92958.56;;;-3.95;100.00
11345;BME280;5727;42.600;23.028;2024-01-15T03:39:21;92950.88;;;-3.95;100.00
11345;BME280;5727;42.600;23.028;2024-01-15T03:41:47;92953.44;;;-3.95;100.00
11345;BME280;5727;42.600;23.028;2024-01-15T03:44:14;92954.97;;;-3.99;100.00
11345;BME280;5727;42.600;23.028;2024-01-15T03:46:41;92951.88;;;-4.16;100.00
11345;BME280;5727;42.600;23.028;2024-01-15T03:49:10;92949.56;;;-4.22;100.00
11345;BME280;5727;42.600;23.028;2024-01-15T03:51:37;92943.69;;;-4.13;100.00
11345;BME280;5727;42.600;23.028;2024-01-15T03:54:04;92953.44;;;-4.10;100.00
11345;BME280;5727;42.600;23.028;2024-01-15T03:56:32;92942.16;;;-4.09;100.00
11345;BME280;5727;42.600;23.028;2024-01-15T03:58:59;92936.03;;;-4.08;100.00
11345;BME280;5727;42.600;23.028;2024-01-15T04:01:26;92936.56;;;-4.06;100.00
11345;BME280;5727;42.600;23.028;2024-01-15T04:03:53;92934.00;;;-4.06;100.00
11345;BME280;5727;42.600;23.028;2024-01-15T04:06:21;92936.31;;;-4.04;100.00
11345;BME280;5727;42.600;23.028;2024-01-15T04:08:48;92929.66;;;-4.15;100.00
11345;BME280;5727;42.600;23.028;2024-01-15T04:11:15;92931.41;;;-4.11;100.00
11345;BME280;5727;42.600;23.028;2024-01-15T04:13:42;92930.94;;;-4.08;100.00
11345;BME280;5727;42.600;23.028;2024-01-15T04:16:09;92925.56;;;-4.06;100.00
11345;BME280;5727;42.600;23.028;2024-01-15T04:18:36;92943.44;;;-4.16;100.00
11345;BME280;5727;42.600;23.028;2024-01-15T04:21:04;92943.94;;;-4.29;100.00
11345;BME280;5727;42.600;23.028;2024-01-15T04:23:32;92946.22;;;-4.43;100.00
11345;BME280;5727;42.600;23.028;2024-01-15T04:25:59;92945.72;;;-4.35;100.00
11345;BME280;5727;42.600;23.028;2024-01-15T04:28:26;92937.75;;;-4.43;100.00
11345;BME280;5727;42.600;23.028;2024-01-15T04:30:53;92948.41;;;-4.72;100.00
11345;BME280;5727;42.600;23.028;2024-01-15T04:33:22;92952.78;;;-4.62;100.00
11345;BME280;5727;42.600;23.028;2024-01-15T04:35:49;92947.94;;;-4.63;100.00
11345;BME280;5727;42.600;23.028;2024-01-15T04:38:16;92946.81;;;-4.93;100.00
11345;BME280;5727;42.600;23.028;2024-01-15T04:40:44;92933.94;;;-5.13;100.00
11345;BME280;5727;42.600;23.028;2024-01-15T04:43:11;92932.16;;;-5.12;100.00
11345;BME280;5727;42.600;23.028;2024-01-15T04:45:38;92916.94;;;-4.92;100.00
11345;BME280;5727;42.600;23.028;2024-01-15T04:48:05;92900.91;;;-4.68;100.00
11345;BME280;5727;42.600;23.028;2024-01-15T04:50:32;92903.25;;;-4.51;100.00
11345;BME280;5727;42.600;23.028;2024-01-15T04:52:59;92899.44;;;-4.33;100.00
11345;BME280;5727;42.600;23.028;2024-01-15T04:55:26;92898.94;;;-4.20;100.00
11345;BME280;5727;42.600;23.028;2024-01-15T04:57:54;92900.22;;;-4.23;100.00
11345;BME280;5727;42.600;23.028;2024-01-15T05:00:21;92903.81;;;-4.19;100.00
11345;BME280;5727;42.600;23.028;2024-01-15T05:02:48;92915.56;;;-4.13;100.00
11345;BME280;5727;42.600;23.028;2024-01-15T05:05:15;92914.28;;;-4.05;100.00
11345;BME280;5727;42.600;23.028;2024-01-15T05:07:42;92910.19;;;-4.16;100.00
11345;BME280;5727;42.600;23.028;2024-01-15T05:10:09;92905.34;;;-4.03;100.00
11345;BME280;5727;42.600;23.028;2024-01-15T05:12:36;92901.25;;;-3.94;100.00
11345;BME280;5727;42.600;23.028;2024-01-15T05:15:06;92893.84;;;-3.90;100.00
11345;BME280;5727;42.600;23.028;2024-01-15T05:17:33;92898.44;;;-3.82;100.00
11345;BME280;5727;42.600;23.028;2024-01-15T05:20:00;92903.28;;;-3.76;100.00
11345;BME280;5727;42.600;23.028;2024-01-15T05:22:27;92899.97;;;-3.71;100.00
11345;BME280;5727;42.600;23.028;2024-01-15T05:24:54;92888.72;;;-3.65;100.00
11345;BME280;5727;42.600;23.028;2024-01-15T05:27:21;92898.69;;;-3.63;100.00
11345;BME280;5727;42.600;23.028;2024-01-15T05:29:48;92892.25;;;-3.61;100.00
11345;BME280;5727;42.600;23.028;2024-01-15T05:32:16;92883.59;;;-3.65;100.00
11345;BME280;5727;42.600;23.028;2024-01-15T05:34:44;92892.53;;;-3.62;100.00
11345;BME280;5727;42.600;23.028;2024-01-15T05:37:11;92893.31;;;-3.82;100.00
11345;BME280;5727;42.600;23.028;2024-01-15T05:39:39;92898.16;;;-3.96;100.00
11345;BME280;5727;42.600;23.028;2024-01-15T05:42:06;92903.81;;;-3.89;100.00
11345;BME280;5727;42.600;23.028;2024-01-15T05:44:33;92902.56;;;-3.86;100.00
11345;BME280;5727;42.600;23.028;2024-01-15T05:47:00;92894.34;;;-4.03;100.00
11345;BME280;5727;42.600;23.028;2024-01-15T05:49:29;92887.16;;;-4.31;100.00
11345;BME280;5727;42.600;23.028;2024-01-15T05:51:57;92874.88;;;-4.39;100.00
11345;BME280;5727;42.600;23.028;2024-01-15T05:54:24;92875.13;;;-4.36;100.00
11345;BME280;5727;42.600;23.028;2024-01-15T05:56:51;92872.09;;;-4.33;100.00
11345;BME280;5727;42.600;23.028;2024-01-15T05:59:18;92871.59;;;-4.20;100.00
11345;BME280;5727;42.600;23.028;2024-01-15T06:01:44;92877.72;;;-4.16;100.00
11345;BME280;5727;42.600;23.028;2024-01-15T06:04:11;92879.53;;;-4.11;100.00
11345;BME280;5727;42.600;23.028;2024-01-15T06:06:40;92880.78;;;-4.09;100.00
11345;BME280;5727;42.600;23.028;2024-01-15T06:09:07;92870.53;;;-4.39;100.00
11345;BME280;5727;42.600;23.028;2024-01-15T06:11:34;92876.19;;;-4.27;100.00
11345;BME280;5727;42.600;23.028;2024-01-15T06:14:01;92877.44;;;-4.24;100.00
11345;BME280;5727;42.600;23.028;2024-01-15T06:16:28;92883.84;;;-4.22;100.00
11345;BME280;5727;42.600;23.028;2024-01-15T06:18:55;92880.81;;;-4.19;100.00
11345;BME280;5727;42.600;23.028;2024-01-15T06:21:22;92880.78;;;-4.14;100.00
11345;BME280;5727;42.600;23.028;2024-01-15T06:23:51;92875.69;;;-4.04;100.00
11345;BME280;5727;42.600;23.028;2024-01-15T06:26:18;92880.25;;;-3.86;100.00
11345;BME280;5727;42.600;23.028;2024-01-15T06:28:45;92868.50;;;-3.87;100.00
11345;BME280;5727;42.600;23.028;2024-01-15T06:31:12;92870.00;;;-3.71;100.00
11345;BME280;5727;42.600;23.028;2024-01-15T06:33:39;92866.44;;;-3.59;100.00
11345;BME280;5727;42.600;23.028;2024-01-15T06:36:07;92858.72;;;-3.54;100.00
11345;BME280;5727;42.600;23.028;2024-01-15T06:38:34;92868.94;;;-3.39;100.00
11345;BME280;5727;42.600;23.028;2024-01-15T06:41:02;92870.41;;;-3.18;100.00
11345;BME280;5727;42.600;23.028;2024-01-15T06:43:29;92868.78;;;-2.99;100.00
11345;BME280;5727;42.600;23.028;2024-01-15T06:45:56;92876.88;;;-2.72;100.00
11345;BME280;5727;42.600;23.028;2024-01-15T06:48:24;92877.03;;;-2.48;100.00
11345;BME280;5727;42.600;23.028;2024-01-15T06:50:51;92880.53;;;-2.88;100.00
11345;BME280;5727;42.600;23.028;2024-01-15T06:53:18;92876.78;;;-3.06;100.00
11345;BME280;5727;42.600;23.028;2024-01-15T06:55:45;92885.03;;;-3.34;100.00
11345;BME280;5727;42.600;23.028;2024-01-15T06:58:13;92881.50;;;-3.43;100.00
11345;BME280;5727;42.600;23.028;2024-01-15T07:00:40;92876.13;;;-3.56;100.00
11345;BME280;5727;42.600;23.028;2024-01-15T07:03:07;92873.81;;;-3.43;100.00
11345;BME280;5727;42.600;23.028;2024-01-15T07:05:34;92872.97;;;-3.18;100.00
11345;BME280;5727;42.600;23.028;2024-01-15T07:08:03;92870.88;;;-3.06;100.00
11345;BME280;5727;42.600;23.028;2024-01-15T07:10:30;92870.03;;;-2.87;100.00
11345;BME280;5727;42.600;23.028;2024-01-15T07:12:57;92864.91;;;-2.87;100.00
11345;BME280;5727;42.600;23.028;2024-01-15T07:15:26;92865.34;;;-2.69;100.00
11345;BME280;5727;42.600;23.028;2024-01-15T07:17:52;92865.28;;;-2.59;100.00
11345;BME280;5727;42.600;23.028;2024-01-15T07:20:19;92861.91;;;-2.50;100.00
11345;BME280;5727;42.600;23.028;2024-01-15T07:22:46;92861.31;;;-2.42;100.00
11345;BME280;5727;42.600;23.028;2024-01-15T07:25:13;92860.31;;;-2.41;100.00
11345;BME280;5727;42.600;23.028;2024-01-15T07:27:41;92859.66;;;-2.23;100.00
11345;BME280;5727;42.600;23.028;2024-01-15T07:30:11;92863.88;;;-2.03;100.00
11345;BME280;5727;42.600;23.028;2024-01-15T07:32:39;92870.44;;;-1.92;100.00
11345;BME280;5727;42.600;23.028;2024-01-15T07:35:07;92854.69;;;-1.75;100.00
11345;BME280;5727;42.600;23.028;2024-01-15T07:37:34;92843.06;;;-1.68;100.00
11345;BME280;5727;42.600;23.028;2024-01-15T07:40:01;92839.56;;;-1.53;100.00
11345;BME280;5727;42.600;23.028;2024-01-15T07:42:29;92829.47;;;-1.45;100.00
11345;BME280;5727;42.600;23.028;2024-01-15T07:44:57;92836.72;;;-1.28;100.00
11345;BME280;5727;42.600;23.028;2024-01-15T07:47:23;92837.00;;;-1.06;100.00
11345;BME280;5727;42.600;23.028;2024-01-15T07:49:53;92838.97;;;-0.98;100.00
11345;BME280;5727;42.600;23.028;2024-01-15T07:52:20;92849.25;;;-0.98;100.00
11345;BME280;5727;42.600;23.028;2024-01-15T07:54:46;92868.41;;;-1.33;100.00
11345;BME280;5727;42.600;23.028;2024-01-15T07:57:14;92868.78;;;-1.73;100.00
11345;BME280;5727;42.600;23.028;2024-01-15T07:59:40;92871.28;;;-2.02;100.00
11345;BME280;5727;42.600;23.028;2024-01-15T08:02:07;92867.31;;;-2.18;100.00
11345;BME280;5727;42.600;23.028;2024-01-15T08:04:36;92870.41;;;-2.21;100.00
11345;BME280;5727;42.600;23.028;2024-01-15T08:07:05;92862.09;;;-2.41;100.00
11345;BME280;5727;42.600;23.028;2024-01-15T08:09:32;92851.88;;;-2.46;100.00
11345;BME280;5727;42.600;23.028;2024-01-15T08:11:59;92855.91;;;-2.35;100.00
11345;BME280;5727;42.600;23.028;2024-01-15T08:14:26;92853.84;;;-2.33;100.00
11345;BME280;5727;42.600;23.028;2024-01-15T08:16:53;92845.19;;;-2.09;100.00
11345;BME280;5727;42.600;23.028;2024-01-15T08:19:20;92845.44;;;-1.76;100.00
11345;BME280;5727;42.600;23.028;2024-01-15T08:21:47;92840.06;;;-1.51;100.00
11345;BME280;5727;42.600;23.028;2024-01-15T08:24:15;92839.75;;;-1.21;100.00
11345;BME280;5727;42.600;23.028;2024-01-15T08:26:43;92835.56;;;-0.94;100.00
11345;BME280;5727;42.600;23.028;2024-01-15T08:29:10;92824.56;;;-0.57;100.00
11345;BME280;5727;42.600;23.028;2024-01-15T08:31:37;92837.31;;;-0.52;100.00
11345;BME280;5727;42.600;23.028;2024-01-15T08:34:04;92842.34;;;-0.23;100.00
11345;BME280;5727;42.600;23.028;2024-01-15T08:36:31;92852.19;;;0.07;100.00
11345;BME280;5727;42.600;23.028;2024-01-15T08:39:00;92852.63;;;0.28;100.00
11345;BME280;5727;42.600;23.028;2024-01-15T08:44:16;92851.13;;;0.40;100.00
11345;BME280;5727;42.600;23.028;2024-01-15T08:46:43;92851.41;;;0.39;100.00
11345;BME280;5727;42.600;23.028;2024-01-15T08:49:10;92843.94;;;0.24;100.00
11345;BME280;5727;42.600;23.028;2024-01-15T08:51:37;92828.69;;;0.41;100.00
11345;BME280;5727;42.600;23.028;2024-01-15T08:54:04;92840.84;;;0.54;100.00
11345;BME280;5727;42.600;23.028;2024-01-15T08:56:35;92817.88;;;0.84;100.00
11345;BME280;5727;42.600;23.028;2024-01-15T08:59:02;92825.78;;;1.15;100.00
11345;BME280;5727;42.600;23.028;2024-01-15T09:01:29;92829.88;;;1.30;100.00
11345;BME280;5727;42.600;23.028;2024-01-15T09:03:56;92823.41;;;1.54;100.00
11345;BME280;5727;42.600;23.028;2024-01-15T09:06:23;92826.78;;;1.77;100.00
11345;BME280;5727;42.600;23.028;2024-01-15T09:08:50;92819.47;;;1.93;100.00
11345;BME280;5727;42.600;23.028;2024-01-15T09:11:17;92801.00;;;2.08;100.00
11345;BME280;5727;42.600;23.028;2024-01-15T09:13:45;92800.06;;;2.26;100.00
11345;BME280;5727;42.600;23.028;2024-01-15T09:16:12;92788.63;;;2.49;100.00
11345;BME280;5727;42.600;23.028;2024-01-15T09:18:39;92792.19;;;2.61;100.00
11345;BME280;5727;42.600;23.028;2024-01-15T09:21:06;92787.19;;;2.65;100.00
11345;BME280;5727;42.600;23.028;2024-01-15T09:23:33;92788.19;;;2.86;100.00
11345;BME280;5727;42.600;23.028;2024-01-15T09:26:00;92786.38;;;2.95;100.00
11345;BME280;5727;42.600;23.028;2024-01-15T09:28:28;92786.00;;;3.19;100.00
11345;BME280;5727;42.600;23.028;2024-01-15T09:30:56;92782.19;;;3.33;100.00
11345;BME280;5727;42.600;23.028;2024-01-15T09:33:23;92770.66;;;3.56;97.58
11345;BME280;5727;42.600;23.028;2024-01-15T09:35:50;92758.75;;;3.81;96.02
11345;BME280;5727;42.600;23.028;2024-01-15T09:38:16;92737.09;;;4.03;96.36
11345;BME280;5727;42.600;23.028;2024-01-15T09:40:45;92723.63;;;4.18;93.92
11345;BME280;5727;42.600;23.028;2024-01-15T09:43:14;92725.13;;;4.36;92.05
11345;BME280;5727;42.600;23.028;2024-01-15T09:45:42;92713.16;;;4.52;91.75
11345;BME280;5727;42.600;23.028;2024-01-15T09:48:12;92726.69;;;4.66;90.95
11345;BME280;5727;42.600;23.028;2024-01-15T09:50:39;92714.28;;;4.72;89.94
11345;BME280;5727;42.600;23.028;2024-01-15T09:53:06;92700.66;;;4.83;89.42
11345;BME280;5727;42.600;23.028;2024-01-15T09:55:33;92693.69;;;4.96;89.15
11345;BME280;5727;42.600;23.028;2024-01-15T09:58:00;92689.47;;;5.12;89.68
11345;BME280;5727;42.600;23.028;2024-01-15T10:00:29;92683.41;;;5.28;89.99
11345;BME280;5727;42.600;23.028;2024-01-15T10:02:56;92678.72;;;5.42;90.13
11345;BME280;5727;42.600;23.028;2024-01-15T10:05:27;92674.19;;;5.51;89.52
11345;BME280;5727;42.600;23.028;2024-01-15T10:07:55;92680.59;;;5.54;89.30
11345;BME280;5727;42.600;23.028;2024-01-15T10:10:23;92672.78;;;5.75;87.63
11345;BME280;5727;42.600;23.028;2024-01-15T10:12:50;92669.56;;;5.78;85.81
11345;BME280;5727;42.600;23.028;2024-01-15T10:15:17;92664.53;;;5.73;86.66
11345;BME280;5727;42.600;23.028;2024-01-15T10:17:44;92653.44;;;5.84;86.68
11345;BME280;5727;42.600;23.028;2024-01-15T10:20:11;92631.19;;;5.63;87.59
11345;BME280;5727;42.600;23.028;2024-01-15T10:22:43;92652.06;;;5.87;88.36
11345;BME280;5727;42.600;23.028;2024-01-15T10:25:12;92648.19;;;5.93;87.18
11345;BME280;5727;42.600;23.028;2024-01-15T10:27:40;92645.81;;;6.00;88.65
11345;BME280;5727;42.600;23.028;2024-01-15T10:30:08;92646.69;;;6.04;88.17
11345;BME280;5727;42.600;23.028;2024-01-15T10:32:35;92636.53;;;6.11;87.62
11345;BME280;5727;42.600;23.028;2024-01-15T10:35:03;92640.97;;;6.22;88.98
11345;BME280;5727;42.600;23.028;2024-01-15T10:37:32;92635.22;;;6.17;89.37
11345;BME280;5727;42.600;23.028;2024-01-15T10:40:02;92654.97;;;6.30;89.65
11345;BME280;5727;42.600;23.028;2024-01-15T10:42:31;92639.44;;;6.21;89.35
11345;BME280;5727;42.600;23.028;2024-01-15T10:44:58;92638.06;;;6.24;88.19
11345;BME280;5727;42.600;23.028;2024-01-15T10:47:24;92612.69;;;6.33;88.82
11345;BME280;5727;42.600;23.028;2024-01-15T10:49:52;92620.28;;;6.50;90.17
11345;BME280;5727;42.600;23.028;2024-01-15T10:52:20;92607.13;;;6.71;87.86
11345;BME280;5727;42.600;23.028;2024-01-15T10:54:49;92621.97;;;6.82;85.21
11345;BME280;5727;42.600;23.028;2024-01-15T10:57:18;92618.81;;;7.01;85.27
11345;BME280;5727;42.600;23.028;2024-01-15T10:59:47;92601.16;;;6.94;82.48
11345;BME280;5727;42.600;23.028;2024-01-15T11:02:14;92602.69;;;6.95;83.20
11345;BME280;5727;42.600;23.028;2024-01-15T11:04:41;92596.59;;;6.91;83.04
11345;BME280;5727;42.600;23.028;2024-01-15T11:07:10;92592.03;;;7.00;82.56
11345;BME280;5727;42.600;23.028;2024-01-15T11:09:37;92584.22;;;7.00;81.77
11345;BME280;5727;42.600;23.028;2024-01-15T11:12:09;92576.31;;;6.85;82.03
11345;BME280;5727;42.600;23.028;2024-01-15T11:14:40;92561.50;;;6.61;84.16
11345;BME280;5727;42.600;23.028;2024-01-15T11:17:09;92570.84;;;6.74;84.84
11345;BME280;5727;42.600;23.028;2024-01-15T11:19:37;92563.94;;;6.94;84.35
11345;BME280;5727;42.600;23.028;2024-01-15T11:22:07;92560.16;;;6.91;82.77
11345;BME280;5727;42.600;23.028;2024-01-15T11:24:36;92556.25;;;6.85;83.05
11345;BME280;5727;42.600;23.028;2024-01-15T11:27:04;92544.56;;;6.79;82.53
11345;BME280;5727;42.600;23.028;2024-01-15T11:29:33;92557.97;;;6.93;82.03
11345;BME280;5727;42.600;23.028;2024-01-15T11:32:03;92553.22;;;6.95;82.30
11345;BME280;5727;42.600;23.028;2024-01-15T11:34:58;92559.16;;;6.96;81.59
11345;BME280;5727;42.600;23.028;2024-01-15T11:37:28;92554.72;;;6.96;82.22
11345;BME280;5727;42.600;23.028;2024-01-15T11:40:03;92560.91;;;6.92;81.66
11345;BME280;5727;42.600;23.028;2024-01-15T11:42:30;92552.91;;;6.73;82.84
11345;BME280;5727;42.600;23.028;2024-01-15T11:44:57;92553.00;;;6.76;83.33
11345;BME280;5727;42.600;23.028;2024-01-15T11:48:09;92552.03;;;6.81;83.52
11345;BME280;5727;42.600;23.028;2024-01-15T11:50:40;92538.25;;;6.80;83.28
11345;BME280;5727;42.600;23.028;2024-01-15T11:53:15;92536.56;;;6.72;83.94
11345;BME280;5727;42.600;23.028;2024-01-15T11:55:44;92542.06;;;6.71;84.55
11345;BME280;5727;42.600;23.028;2024-01-15T11:58:11;92533.81;;;6.81;85.10
11345;BME280;5727;42.600;23.028;2024-01-15T12:00:42;92546.63;;;6.86;84.88
11345;BME280;5727;42.600;23.028;2024-01-15T12:03:11;92531.94;;;6.93;84.43
11345;BME280;5727;42.600;23.028;2024-01-15T12:05:38;92541.69;;;6.96;85.19
11345;BME280;5727;42.600;23.028;2024-01-15T12:08:07;92533.53;;;6.98;83.81
11345;BME280;5727;42.600;23.028;2024-01-15T12:10:36;92531.53;;;6.91;85.28
11345;BME280;5727;42.600;23.028;2024-01-15T12:13:05;92528.53;;;7.05;84.09
11345;BME280;5727;42.600;23.028;2024-01-15T12:15:34;92537.94;;;7.09;83.55
11345;BME280;5727;42.600;23.028;2024-01-15T12:18:02;92533.59;;;7.13;83.88
11345;BME280;5727;42.600;23.028;2024-01-15T12:20:31;92524.47;;;7.19;83.66
11345;BME280;5727;42.600;23.028;2024-01-15T12:23:00;92518.56;;;7.22;83.85
11345;BME280;5727;42.600;23.028;2024-01-15T12:25:29;92525.06;;;7.28;83.60
11345;BME280;5727;42.600;23.028;2024-01-15T12:27:56;92529.19;;;7.29;82.81
11345;BME280;5727;42.600;23.028;2024-01-15T12:30:23;92529.84;;;7.26;82.83
11345;BME280;5727;42.600;23.028;2024-01-15T12:32:50;92525.56;;;7.34;82.51
11345;BME280;5727;42.600;23.028;2024-01-15T12:35:17;92524.63;;;7.26;81.47
11345;BME280;5727;42.600;23.028;2024-01-15T12:37:47;92528.06;;;7.15;82.96
11345;BME280;5727;42.600;23.028;2024-01-15T12:40:18;92512.19;;;7.20;83.57
11345;BME280;5727;42.600;23.028;2024-01-15T12:42:45;92514.94;;;7.11;83.55
11345;BME280;5727;42.600;23.028;2024-01-15T12:45:13;92504.78;;;7.06;84.17
11345;BME280;5727;42.600;23.028;2024-01-15T12:47:39;92512.94;;;7.20;83.57
11345;BME280;5727;42.600;23.028;2024-01-15T12:50:07;92504.47;;;7.23;83.03
11345;BME280;5727;42.600;23.028;2024-01-15T12:52:34;92507.69;;;7.32;82.43
11345;BME280;5727;42.600;23.028;2024-01-15T12:55:05;92503.72;;;7.23;82.98
11345;BME280;5727;42.600;23.028;2024-01-15T12:57:32;92504.72;;;7.18;84.12
11345;BME280;5727;42.600;23.028;2024-01-15T12:59:59;92491.38;;;7.20;83.69